sensor_id;sensor_type;location;lat;lon;timestamp;temperature;humidity
15997;DHT22;8103;51.340;12.326;2022-09-01T00:01:48;15.60;90.50
15997;DHT22;8103;51.340;12.326;2022-09-01T00:04:18;15.60;90.60
15997;DHT22;8103;51.340;12.326;2022-09-01T00:06:46;15.60;90.80
15997;DHT22;8103;51.340;12.326;2022-09-01T00:09:18;15.60;91.00
15997;DHT22;8103;51.340;12.326;2022-09-01T00:11:48;15.70;91.00
15997;DHT22;8103;51.340;12.326;2022-09-01T00:14:18;15.70;91.20
15997;DHT22;8103;51.340;12.326;2022-09-01T00:16:47;15.70;91.20
15997;DHT22;8103;51.340;12.326;2022-09-01T00:19:15;15.70;91.20
15997;DHT22;8103;51.340;12.326;2022-09-01T00:21:43;15.80;91.30
15997;DHT22;8103;51.340;12.326;2022-09-01T00:24:13;15.80;91.30
15997;DHT22;8103;51.340;12.326;2022-09-01T00:26:41;15.80;91.20
15997;DHT22;8103;51.340;12.326;2022-09-01T00:29:08;15.90;91.40
15997;DHT22;8103;51.340;12.326;2022-09-01T00:31:35;15.90;91.40
15997;DHT22;8103;51.340;12.326;2022-09-01T00:34:03;15.90;91.30
15997;DHT22;8103;51.340;12.326;2022-09-01T00:36:30;15.80;91.30
15997;DHT22;8103;51.340;12.326;2022-09-01T00:38:57;15.80;91.40
15997;DHT22;8103;51.340;12.326;2022-09-01T00:41:31;15.90;91.90
15997;DHT22;8103;51.340;12.326;2022-09-01T00:44:01;15.90;91.70
15997;DHT22;8103;51.340;12.326;2022-09-01T00:46:32;15.80;91.70
15997;DHT22;8103;51.340;12.326;2022-09-01T00:49:08;15.80;91.80
15997;DHT22;8103;51.340;12.326;2022-09-01T00:51:37;15.80;91.90
15997;DHT22;8103;51.340;12.326;2022-09-01T00:54:08;15.70;92.00
15997;DHT22;8103;51.340;12.326;2022-09-01T00:56:39;15.70;92.10
15997;DHT22;8103;51.340;12.326;2022-09-01T00:59:08;15.70;92.20
15997;DHT22;8103;51.340;12.326;2022-09-01T01:01:37;15.70;92.30
15997;DHT22;8103;51.340;12.326;2022-09-01T01:04:06;15.60;92.40
15997;DHT22;8103;51.340;12.326;2022-09-01T01:06:46;15.60;92.60
15997;DHT22;8103;51.340;12.326;2022-09-01T01:09:19;15.50;92.80
15997;DHT22;8103;51.340;12.326;2022-09-01T01:11:47;15.50;92.90
15997;DHT22;8103;51.340;12.326;2022-09-01T01:14:16;15.40;93.10
15997;DHT22;8103;51.340;12.326;2022-09-01T01:16:45;15.40;93.30
15997;DHT22;8103;51.340;12.326;2022-09-01T01:19:39;15.30;93.40
15997;DHT22;8103;51.340;12.326;2022-09-01T01:25:37;15.30;93.80
15997;DHT22;8103;51.340;12.326;2022-09-01T01:30:39;15.20;94.20
15997;DHT22;8103;51.340;12.326;2022-09-01T01:33:08;15.10;94.40
15997;DHT22;8103;51.340;12.326;2022-09-01T01:35:35;15.10;94.60
15997;DHT22;8103;51.340;12.326;2022-09-01T01:38:03;15.10;94.80
15997;DHT22;8103;51.340;12.326;2022-09-01T01:40:35;15.00;95.00
15997;DHT22;8103;51.340;12.326;2022-09-01T01:43:04;15.00;95.20
15997;DHT22;8103;51.340;12.326;2022-09-01T01:45:31;15.00;95.40
15997;DHT22;8103;51.340;12.326;2022-09-01T01:47:58;15.00;95.60
15997;DHT22;8103;51.340;12.326;2022-09-01T01:50:33;14.90;95.80
15997;DHT22;8103;51.340;12.326;2022-09-01T01:53:04;14.90;96.00
15997;DHT22;8103;51.340;12.326;2022-09-01T01:55:36;14.90;96.10
15997;DHT22;8103;51.340;12.326;2022-09-01T01:58:03;14.90;96.30
15997;DHT22;8103;51.340;12.326;2022-09-01T02:00:31;14.90;96.50
15997;DHT22;8103;51.340;12.326;2022-09-01T02:03:00;14.80;96.60
15997;DHT22;8103;51.340;12.326;2022-09-01T02:05:30;14.80;96.70
15997;DHT22;8103;51.340;12.326;2022-09-01T02:08:04;14.80;96.80
15997;DHT22;8103;51.340;12.326;2022-09-01T02:10:42;14.70;96.90
15997;DHT22;8103;51.340;12.326;2022-09-01T02:13:11;14.70;97.20
15997;DHT22;8103;51.340;12.326;2022-09-01T02:15:48;14.70;97.40
15997;DHT22;8103;51.340;12.326;2022-09-01T02:18:22;14.60;97.60
15997;DHT22;8103;51.340;12.326;2022-09-01T02:20:51;14.60;97.80
15997;DHT22;8103;51.340;12.326;2022-09-01T02:23:19;14.50;97.90
15997;DHT22;8103;51.340;12.326;2022-09-01T02:25:51;14.50;98.10
15997;DHT22;8103;51.340;12.326;2022-09-01T02:28:39;14.50;98.20
15997;DHT22;8103;51.340;12.326;2022-09-01T02:31:11;14.50;98.50
15997;DHT22;8103;51.340;12.326;2022-09-01T02:33:39;14.40;98.50
15997;DHT22;8103;51.340;12.326;2022-09-01T02:36:13;14.40;98.80
15997;DHT22;8103;51.340;12.326;2022-09-01T02:38:42;14.40;99.10
15997;DHT22;8103;51.340;12.326;2022-09-01T02:41:12;14.30;99.10
15997;DHT22;8103;51.340;12.326;2022-09-01T02:43:40;14.30;99.40
15997;DHT22;8103;51.340;12.326;2022-09-01T02:46:12;14.30;99.50
15997;DHT22;8103;51.340;12.326;2022-09-01T02:48:42;14.30;99.70
15997;DHT22;8103;51.340;12.326;2022-09-01T02:51:14;14.20;99.90
15997;DHT22;8103;51.340;12.326;2022-09-01T02:53:42;14.20;99.90
15997;DHT22;8103;51.340;12.326;2022-09-01T02:56:10;14.20;99.90
15997;DHT22;8103;51.340;12.326;2022-09-01T02:58:44;14.30;99.90
15997;DHT22;8103;51.340;12.326;2022-09-01T03:01:25;14.10;99.90
15997;DHT22;8103;51.340;12.326;2022-09-01T03:03:55;14.10;99.90
15997;DHT22;8103;51.340;12.326;2022-09-01T03:06:23;14.10;99.90
15997;DHT22;8103;51.340;12.326;2022-09-01T03:08:53;14.10;99.90
15997;DHT22;8103;51.340;12.326;2022-09-01T03:11:21;14.00;99.90
15997;DHT22;8103;51.340;12.326;2022-09-01T03:13:51;14.00;99.90
15997;DHT22;8103;51.340;12.326;2022-09-01T03:16:19;13.90;99.90
15997;DHT22;8103;51.340;12.326;2022-09-01T03:18:48;13.90;99.90
15997;DHT22;8103;51.340;12.326;2022-09-01T03:21:16;13.90;99.90
15997;DHT22;8103;51.340;12.326;2022-09-01T03:23:44;13.80;99.90
15997;DHT22;8103;51.340;12.326;2022-09-01T03:26:13;13.80;99.90
15997;DHT22;8103;51.340;12.326;2022-09-01T03:28:41;13.80;99.90
15997;DHT22;8103;51.340;12.326;2022-09-01T03:31:08;13.80;99.90
15997;DHT22;8103;51.340;12.326;2022-09-01T03:33:35;13.60;99.90
15997;DHT22;8103;51.340;12.326;2022-09-01T03:36:03;13.70;99.90
15997;DHT22;8103;51.340;12.326;2022-09-01T03:38:42;13.70;99.90
15997;DHT22;8103;51.340;12.326;2022-09-01T03:41:09;13.70;99.90
15997;DHT22;8103;51.340;12.326;2022-09-01T03:43:39;13.60;99.90
15997;DHT22;8103;51.340;12.326;2022-09-01T03:46:06;13.60;99.90
15997;DHT22;8103;51.340;12.326;2022-09-01T03:48:35;13.60;99.90
15997;DHT22;8103;51.340;12.326;2022-09-01T03:51:02;13.60;99.90
15997;DHT22;8103;51.340;12.326;2022-09-01T03:53:32;13.60;99.90
15997;DHT22;8103;51.340;12.326;2022-09-01T03:55:59;13.50;99.90
15997;DHT22;8103;51.340;12.326;2022-09-01T03:58:29;13.60;99.90
15997;DHT22;8103;51.340;12.326;2022-09-01T04:00:59;13.50;99.90
15997;DHT22;8103;51.340;12.326;2022-09-01T04:03:30;13.50;99.90
15997;DHT22;8103;51.340;12.326;2022-09-01T04:05:59;13.50;99.90
15997;DHT22;8103;51.340;12.326;2022-09-01T04:08:26;13.40;99.90
15997;DHT22;8103;51.340;12.326;2022-09-01T04:11:01;13.40;99.90
15997;DHT22;8103;51.340;12.326;2022-09-01T04:13:40;13.60;99.90
15997;DHT22;8103;51.340;12.326;2022-09-01T04:16:16;13.40;99.90
15997;DHT22;8103;51.340;12.326;2022-09-01T04:19:03;13.40;99.90
15997;DHT22;8103;51.340;12.326;2022-09-01T04:21:42;13.40;99.90
15997;DHT22;8103;51.340;12.326;2022-09-01T04:24:12;13.40;99.90
15997;DHT22;8103;51.340;12.326;2022-09-01T04:26:41;13.40;99.90
15997;DHT22;8103;51.340;12.326;2022-09-01T04:29:08;13.40;99.90
15997;DHT22;8103;51.340;12.326;2022-09-01T04:31:38;13.50;99.90
15997;DHT22;8103;51.340;12.326;2022-09-01T04:34:06;13.30;99.90
15997;DHT22;8103;51.340;12.326;2022-09-01T04:36:41;13.40;99.90
15997;DHT22;8103;51.340;12.326;2022-09-01T04:39:10;13.40;99.90
15997;DHT22;8103;51.340;12.326;2022-09-01T04:41:44;13.40;99.90
15997;DHT22;8103;51.340;12.326;2022-09-01T04:44:15;13.40;99.90
15997;DHT22;8103;51.340;12.326;2022-09-01T04:46:46;13.40;99.90
15997;DHT22;8103;51.340;12.326;2022-09-01T04:49:14;13.40;99.90
15997;DHT22;8103;51.340;12.326;2022-09-01T04:51:47;13.40;99.90
15997;DHT22;8103;51.340;12.326;2022-09-01T04:54:19;13.40;99.90
15997;DHT22;8103;51.340;12.326;2022-09-01T04:56:48;13.40;99.90
15997;DHT22;8103;51.340;12.326;2022-09-01T04:59:18;13.50;99.90
15997;DHT22;8103;51.340;12.326;2022-09-01T05:01:47;13.50;99.90
15997;DHT22;8103;51.340;12.326;2022-09-01T05:04:21;13.50;99.90
15997;DHT22;8103;51.340;12.326;2022-09-01T05:06:53;13.50;99.90
15997;DHT22;8103;51.340;12.326;2022-09-01T05:09:31;13.50;99.90
15997;DHT22;8103;51.340;12.326;2022-09-01T05:12:00;13.60;99.90
15997;DHT22;8103;51.340;12.326;2022-09-01T05:14:39;13.60;99.90
15997;DHT22;8103;51.340;12.326;2022-09-01T05:17:09;13.70;99.90
15997;DHT22;8103;51.340;12.326;2022-09-01T05:19:39;13.70;99.90
15997;DHT22;8103;51.340;12.326;2022-09-01T05:22:06;13.70;99.90
15997;DHT22;8103;51.340;12.326;2022-09-01T05:24:36;13.80;99.90
15997;DHT22;8103;51.340;12.326;2022-09-01T05:27:07;13.80;99.90
15997;DHT22;8103;51.340;12.326;2022-09-01T05:29:36;13.80;99.90
15997;DHT22;8103;51.340;12.326;2022-09-01T05:32:05;13.90;99.90
15997;DHT22;8103;51.340;12.326;2022-09-01T05:34:35;13.90;99.90
15997;DHT22;8103;51.340;12.326;2022-09-01T05:37:05;14.00;99.90
15997;DHT22;8103;51.340;12.326;2022-09-01T05:39:32;14.00;99.90
15997;DHT22;8103;51.340;12.326;2022-09-01T05:42:01;14.10;99.90
15997;DHT22;8103;51.340;12.326;2022-09-01T05:44:30;14.10;99.90
15997;DHT22;8103;51.340;12.326;2022-09-01T05:46:58;14.10;99.90
15997;DHT22;8103;51.340;12.326;2022-09-01T05:49:26;14.20;99.90
15997;DHT22;8103;51.340;12.326;2022-09-01T05:51:54;14.30;99.90
15997;DHT22;8103;51.340;12.326;2022-09-01T05:54:24;14.30;99.90
15997;DHT22;8103;51.340;12.326;2022-09-01T05:56:54;14.30;99.90
15997;DHT22;8103;51.340;12.326;2022-09-01T05:59:38;14.40;99.90
15997;DHT22;8103;51.340;12.326;2022-09-01T06:02:07;14.50;99.90
15997;DHT22;8103;51.340;12.326;2022-09-01T06:04:37;14.50;99.90
15997;DHT22;8103;51.340;12.326;2022-09-01T06:07:06;14.60;99.90
15997;DHT22;8103;51.340;12.326;2022-09-01T06:09:40;14.60;99.90
15997;DHT22;8103;51.340;12.326;2022-09-01T06:12:08;14.80;99.90
15997;DHT22;8103;51.340;12.326;2022-09-01T06:14:44;14.80;99.90
15997;DHT22;8103;51.340;12.326;2022-09-01T06:17:11;14.90;99.90
15997;DHT22;8103;51.340;12.326;2022-09-01T06:19:42;15.00;99.90
15997;DHT22;8103;51.340;12.326;2022-09-01T06:22:09;15.20;99.90
15997;DHT22;8103;51.340;12.326;2022-09-01T06:24:38;15.30;99.90
15997;DHT22;8103;51.340;12.326;2022-09-01T06:27:06;15.40;99.90
15997;DHT22;8103;51.340;12.326;2022-09-01T06:29:38;15.40;99.90
15997;DHT22;8103;51.340;12.326;2022-09-01T06:32:07;15.50;99.90
15997;DHT22;8103;51.340;12.326;2022-09-01T06:34:39;15.60;99.90
15997;DHT22;8103;51.340;12.326;2022-09-01T06:37:11;15.60;99.90
15997;DHT22;8103;51.340;12.326;2022-09-01T06:39:38;15.70;99.90
15997;DHT22;8103;51.340;12.326;2022-09-01T06:42:06;15.80;99.90
15997;DHT22;8103;51.340;12.326;2022-09-01T06:44:35;15.90;99.90
15997;DHT22;8103;51.340;12.326;2022-09-01T06:47:06;16.00;99.90
15997;DHT22;8103;51.340;12.326;2022-09-01T06:49:35;16.00;99.90
15997;DHT22;8103;51.340;12.326;2022-09-01T06:52:03;16.20;99.90
15997;DHT22;8103;51.340;12.326;2022-09-01T06:54:30;16.30;99.90
15997;DHT22;8103;51.340;12.326;2022-09-01T06:57:02;16.50;99.90
15997;DHT22;8103;51.340;12.326;2022-09-01T06:59:50;16.60;99.90
15997;DHT22;8103;51.340;12.326;2022-09-01T07:02:20;16.80;99.90
15997;DHT22;8103;51.340;12.326;2022-09-01T07:04:47;17.00;99.90
15997;DHT22;8103;51.340;12.326;2022-09-01T07:07:15;17.10;99.90
15997;DHT22;8103;51.340;12.326;2022-09-01T07:10:04;17.30;99.90
15997;DHT22;8103;51.340;12.326;2022-09-01T07:12:44;17.60;99.90
15997;DHT22;8103;51.340;12.326;2022-09-01T07:15:32;17.90;99.90
15997;DHT22;8103;51.340;12.326;2022-09-01T07:18:21;18.10;99.90
15997;DHT22;8103;51.340;12.326;2022-09-01T07:20:48;18.30;99.90
15997;DHT22;8103;51.340;12.326;2022-09-01T07:23:33;18.40;99.90
15997;DHT22;8103;51.340;12.326;2022-09-01T07:26:23;18.70;99.90
15997;DHT22;8103;51.340;12.326;2022-09-01T07:28:51;18.90;99.90
15997;DHT22;8103;51.340;12.326;2022-09-01T07:31:29;19.10;99.90
15997;DHT22;8103;51.340;12.326;2022-09-01T07:34:17;19.40;99.90
15997;DHT22;8103;51.340;12.326;2022-09-01T07:37:04;19.60;99.40
15997;DHT22;8103;51.340;12.326;2022-09-01T07:39:52;19.80;97.70
15997;DHT22;8103;51.340;12.326;2022-09-01T07:42:21;19.80;97.00
15997;DHT22;8103;51.340;12.326;2022-09-01T07:45:09;19.80;96.50
15997;DHT22;8103;51.340;12.326;2022-09-01T07:47:53;19.70;95.90
15997;DHT22;8103;51.340;12.326;2022-09-01T07:50:21;19.50;96.00
15997;DHT22;8103;51.340;12.326;2022-09-01T07:53:16;19.30;95.80
15997;DHT22;8103;51.340;12.326;2022-09-01T07:55:45;19.10;96.10
15997;DHT22;8103;51.340;12.326;2022-09-01T07:58:13;19.10;96.40
15997;DHT22;8103;51.340;12.326;2022-09-01T08:00:40;19.20;96.10
15997;DHT22;8103;51.340;12.326;2022-09-01T08:03:10;19.30;95.80
15997;DHT22;8103;51.340;12.326;2022-09-01T08:05:37;19.50;95.30
15997;DHT22;8103;51.340;12.326;2022-09-01T08:08:04;19.70;95.00
15997;DHT22;8103;51.340;12.326;2022-09-01T08:10:44;19.90;94.30
15997;DHT22;8103;51.340;12.326;2022-09-01T08:13:15;20.10;93.80
15997;DHT22;8103;51.340;12.326;2022-09-01T08:15:42;20.20;93.40
15997;DHT22;8103;51.340;12.326;2022-09-01T08:18:30;20.40;92.90
15997;DHT22;8103;51.340;12.326;2022-09-01T08:21:14;20.60;92.30
15997;DHT22;8103;51.340;12.326;2022-09-01T08:23:42;20.70;91.90
15997;DHT22;8103;51.340;12.326;2022-09-01T08:26:13;20.80;91.60
15997;DHT22;8103;51.340;12.326;2022-09-01T08:28:40;20.90;91.50
15997;DHT22;8103;51.340;12.326;2022-09-01T08:31:14;21.00;91.10
15997;DHT22;8103;51.340;12.326;2022-09-01T08:33:43;21.30;90.20
15997;DHT22;8103;51.340;12.326;2022-09-01T08:36:12;21.40;87.70
15997;DHT22;8103;51.340;12.326;2022-09-01T08:38:40;21.70;82.70
15997;DHT22;8103;51.340;12.326;2022-09-01T08:46:47;22.30;74.80
15997;DHT22;8103;51.340;12.326;2022-09-01T08:49:22;22.70;70.90
15997;DHT22;8103;51.340;12.326;2022-09-01T08:52:01;23.00;69.60
15997;DHT22;8103;51.340;12.326;2022-09-01T08:54:49;23.30;69.20
15997;DHT22;8103;51.340;12.326;2022-09-01T08:57:20;23.60;67.10
15997;DHT22;8103;51.340;12.326;2022-09-01T08:59:49;23.90;65.70
15997;DHT22;8103;51.340;12.326;2022-09-01T09:02:35;24.20;64.50
15997;DHT22;8103;51.340;12.326;2022-09-01T09:08:21;24.40;62.40
15997;DHT22;8103;51.340;12.326;2022-09-01T09:11:06;24.50;61.70
15997;DHT22;8103;51.340;12.326;2022-09-01T09:16:47;24.80;60.70
15997;DHT22;8103;51.340;12.326;2022-09-01T09:22:08;25.50;58.90
15997;DHT22;8103;51.340;12.326;2022-09-01T09:24:50;26.40;57.40
15997;DHT22;8103;51.340;12.326;2022-09-01T09:29:59;28.40;52.60
15997;DHT22;8103;51.340;12.326;2022-09-01T09:33:02;29.50;49.00
15997;DHT22;8103;51.340;12.326;2022-09-01T09:35:50;30.90;44.90
15997;DHT22;8103;51.340;12.326;2022-09-01T09:38:22;31.80;42.60
15997;DHT22;8103;51.340;12.326;2022-09-01T09:46:37;33.50;38.80
15997;DHT22;8103;51.340;12.326;2022-09-01T09:49:21;34.00;37.30
15997;DHT22;8103;51.340;12.326;2022-09-01T09:55:06;34.90;35.60
15997;DHT22;8103;51.340;12.326;2022-09-01T09:57:44;35.50;34.20
15997;DHT22;8103;51.340;12.326;2022-09-01T10:00:33;36.10;33.00
15997;DHT22;8103;51.340;12.326;2022-09-01T10:03:06;36.80;31.70
15997;DHT22;8103;51.340;12.326;2022-09-01T10:05:41;37.10;31.30
15997;DHT22;8103;51.340;12.326;2022-09-01T10:08:36;37.70;29.60
15997;DHT22;8103;51.340;12.326;2022-09-01T10:11:06;38.30;29.10
15997;DHT22;8103;51.340;12.326;2022-09-01T10:13:33;38.90;28.20
15997;DHT22;8103;51.340;12.326;2022-09-01T10:16:08;39.40;27.40
15997;DHT22;8103;51.340;12.326;2022-09-01T10:18:39;39.80;26.70
15997;DHT22;8103;51.340;12.326;2022-09-01T10:23:49;40.60;25.70
15997;DHT22;8103;51.340;12.326;2022-09-01T10:26:46;41.10;25.30
15997;DHT22;8103;51.340;12.326;2022-09-01T10:29:19;41.60;25.10
15997;DHT22;8103;51.340;12.326;2022-09-01T10:31:50;42.30;25.10
15997;DHT22;8103;51.340;12.326;2022-09-01T10:34:39;42.90;23.90
15997;DHT22;8103;51.340;12.326;2022-09-01T10:37:07;43.60;23.40
15997;DHT22;8103;51.340;12.326;2022-09-01T10:40:16;43.60;23.30
15997;DHT22;8103;51.340;12.326;2022-09-01T10:42:48;43.90;22.90
15997;DHT22;8103;51.340;12.326;2022-09-01T10:45:34;44.50;22.30
15997;DHT22;8103;51.340;12.326;2022-09-01T10:48:24;44.50;21.80
15997;DHT22;8103;51.340;12.326;2022-09-01T10:53:51;44.70;21.20
15997;DHT22;8103;51.340;12.326;2022-09-01T10:56:39;45.50;20.90
15997;DHT22;8103;51.340;12.326;2022-09-01T11:02:12;44.20;20.50
15997;DHT22;8103;51.340;12.326;2022-09-01T11:07:34;39.00;23.90
15997;DHT22;8103;51.340;12.326;2022-09-01T11:10:42;37.00;25.20
15997;DHT22;8103;51.340;12.326;2022-09-01T11:16:33;34.10;27.10
15997;DHT22;8103;51.340;12.326;2022-09-01T11:21:47;37.90;26.20
15997;DHT22;8103;51.340;12.326;2022-09-01T11:27:10;39.90;24.40
15997;DHT22;8103;51.340;12.326;2022-09-01T11:29:57;41.70;22.30
15997;DHT22;8103;51.340;12.326;2022-09-01T11:32:33;43.90;21.20
15997;DHT22;8103;51.340;12.326;2022-09-01T11:35:03;45.60;20.10
15997;DHT22;8103;51.340;12.326;2022-09-01T11:37:31;47.00;19.40
15997;DHT22;8103;51.340;12.326;2022-09-01T11:40:01;46.60;18.80
15997;DHT22;8103;51.340;12.326;2022-09-01T11:42:33;44.00;19.80
15997;DHT22;8103;51.340;12.326;2022-09-01T11:45:12;41.90;21.70
15997;DHT22;8103;51.340;12.326;2022-09-01T11:47:44;39.60;23.50
15997;DHT22;8103;51.340;12.326;2022-09-01T11:50:19;37.10;25.10
15997;DHT22;8103;51.340;12.326;2022-09-01T11:53:02;35.10;26.70
15997;DHT22;8103;51.340;12.326;2022-09-01T11:55:43;33.20;28.50
15997;DHT22;8103;51.340;12.326;2022-09-01T11:58:12;31.90;30.10
15997;DHT22;8103;51.340;12.326;2022-09-01T12:00:43;31.00;31.40
15997;DHT22;8103;51.340;12.326;2022-09-01T12:03:27;30.60;33.70
15997;DHT22;8103;51.340;12.326;2022-09-01T12:05:58;30.20;34.20
15997;DHT22;8103;51.340;12.326;2022-09-01T12:08:30;30.00;34.30
15997;DHT22;8103;51.340;12.326;2022-09-01T12:11:18;31.10;33.80
15997;DHT22;8103;51.340;12.326;2022-09-01T12:14:07;32.70;31.00
15997;DHT22;8103;51.340;12.326;2022-09-01T12:16:39;32.90;30.40
15997;DHT22;8103;51.340;12.326;2022-09-01T12:19:31;32.50;31.00
15997;DHT22;8103;51.340;12.326;2022-09-01T12:22:06;31.90;31.90
15997;DHT22;8103;51.340;12.326;2022-09-01T12:24:48;31.60;32.50
15997;DHT22;8103;51.340;12.326;2022-09-01T12:27:15;31.40;33.00
15997;DHT22;8103;51.340;12.326;2022-09-01T12:29:43;31.20;33.00
15997;DHT22;8103;51.340;12.326;2022-09-01T12:32:12;31.10;33.50
15997;DHT22;8103;51.340;12.326;2022-09-01T12:34:45;30.90;34.00
15997;DHT22;8103;51.340;12.326;2022-09-01T12:37:23;30.80;34.40
15997;DHT22;8103;51.340;12.326;2022-09-01T12:39:53;30.60;34.70
15997;DHT22;8103;51.340;12.326;2022-09-01T12:45:05;30.00;36.10
15997;DHT22;8103;51.340;12.326;2022-09-01T12:50:14;29.90;35.70
15997;DHT22;8103;51.340;12.326;2022-09-01T12:53:00;29.90;35.70
15997;DHT22;8103;51.340;12.326;2022-09-01T12:55:33;29.90;35.10
15997;DHT22;8103;51.340;12.326;2022-09-01T12:58:22;29.70;35.10
15997;DHT22;8103;51.340;12.326;2022-09-01T13:01:04;29.60;35.20
15997;DHT22;8103;51.340;12.326;2022-09-01T13:03:34;29.50;35.40
15997;DHT22;8103;51.340;12.326;2022-09-01T13:06:02;29.30;35.00
15997;DHT22;8103;51.340;12.326;2022-09-01T13:08:32;29.00;35.50
15997;DHT22;8103;51.340;12.326;2022-09-01T13:11:09;28.90;35.90
15997;DHT22;8103;51.340;12.326;2022-09-01T13:13:38;29.00;36.10
15997;DHT22;8103;51.340;12.326;2022-09-01T13:16:05;29.10;35.90
15997;DHT22;8103;51.340;12.326;2022-09-01T13:18:42;29.30;35.50
15997;DHT22;8103;51.340;12.326;2022-09-01T13:21:30;29.90;33.40
15997;DHT22;8103;51.340;12.326;2022-09-01T13:23:57;31.00;32.60
15997;DHT22;8103;51.340;12.326;2022-09-01T13:26:24;31.20;31.00
15997;DHT22;8103;51.340;12.326;2022-09-01T13:28:52;31.00;31.20
15997;DHT22;8103;51.340;12.326;2022-09-01T13:31:22;30.80;31.50
15997;DHT22;8103;51.340;12.326;2022-09-01T13:33:58;30.50;31.70
15997;DHT22;8103;51.340;12.326;2022-09-01T13:36:46;30.10;32.30
15997;DHT22;8103;51.340;12.326;2022-09-01T13:39:18;29.70;32.70
15997;DHT22;8103;51.340;12.326;2022-09-01T13:41:47;29.60;32.70
15997;DHT22;8103;51.340;12.326;2022-09-01T13:44:15;29.50;33.20
15997;DHT22;8103;51.340;12.326;2022-09-01T13:46:43;29.40;32.20
15997;DHT22;8103;51.340;12.326;2022-09-01T13:49:31;29.90;31.40
15997;DHT22;8103;51.340;12.326;2022-09-01T13:52:18;32.60;29.40
15997;DHT22;8103;51.340;12.326;2022-09-01T13:54:45;35.80;27.50
15997;DHT22;8103;51.340;12.326;2022-09-01T13:57:13;38.10;25.30
15997;DHT22;8103;51.340;12.326;2022-09-01T13:59:42;38.60;24.40
15997;DHT22;8103;51.340;12.326;2022-09-01T14:02:10;39.30;24.20
15997;DHT22;8103;51.340;12.326;2022-09-01T14:04:37;40.40;22.90
15997;DHT22;8103;51.340;12.326;2022-09-01T14:07:04;39.70;22.60
15997;DHT22;8103;51.340;12.326;2022-09-01T14:09:31;38.50;23.90
15997;DHT22;8103;51.340;12.326;2022-09-01T14:11:58;38.50;24.20
15997;DHT22;8103;51.340;12.326;2022-09-01T14:14:25;38.50;23.60
15997;DHT22;8103;51.340;12.326;2022-09-01T14:16:52;39.20;23.70
15997;DHT22;8103;51.340;12.326;2022-09-01T14:19:19;41.00;23.40
15997;DHT22;8103;51.340;12.326;2022-09-01T14:21:46;42.30;22.10
15997;DHT22;8103;51.340;12.326;2022-09-01T14:24:15;43.10;21.50
15997;DHT22;8103;51.340;12.326;2022-09-01T14:26:46;42.80;21.70
15997;DHT22;8103;51.340;12.326;2022-09-01T14:29:13;42.90;21.60
15997;DHT22;8103;51.340;12.326;2022-09-01T14:31:40;42.90;21.50
15997;DHT22;8103;51.340;12.326;2022-09-01T14:34:09;42.60;21.90
15997;DHT22;8103;51.340;12.326;2022-09-01T14:36:37;42.50;21.80
15997;DHT22;8103;51.340;12.326;2022-09-01T14:39:05;41.20;22.00
15997;DHT22;8103;51.340;12.326;2022-09-01T14:41:32;39.10;23.40
15997;DHT22;8103;51.340;12.326;2022-09-01T14:43:59;36.90;25.00
15997;DHT22;8103;51.340;12.326;2022-09-01T14:46:29;34.80;26.50
15997;DHT22;8103;51.340;12.326;2022-09-01T14:48:57;33.20;28.10
15997;DHT22;8103;51.340;12.326;2022-09-01T14:51:26;31.90;29.60
15997;DHT22;8103;51.340;12.326;2022-09-01T14:54:14;30.80;30.90
15997;DHT22;8103;51.340;12.326;2022-09-01T14:56:42;29.70;32.40
15997;DHT22;8103;51.340;12.326;2022-09-01T14:59:29;28.90;33.10
15997;DHT22;8103;51.340;12.326;2022-09-01T15:01:57;28.20;34.20
15997;DHT22;8103;51.340;12.326;2022-09-01T15:04:24;27.70;36.30
15997;DHT22;8103;51.340;12.326;2022-09-01T15:06:52;27.30;36.40
15997;DHT22;8103;51.340;12.326;2022-09-01T15:09:19;27.00;37.40
15997;DHT22;8103;51.340;12.326;2022-09-01T15:11:46;26.70;37.20
15997;DHT22;8103;51.340;12.326;2022-09-01T15:14:15;26.50;37.20
15997;DHT22;8103;51.340;12.326;2022-09-01T15:16:42;26.20;37.30
15997;DHT22;8103;51.340;12.326;2022-09-01T15:19:11;25.90;37.80
15997;DHT22;8103;51.340;12.326;2022-09-01T15:21:40;25.70;38.70
15997;DHT22;8103;51.340;12.326;2022-09-01T15:24:09;25.50;39.00
15997;DHT22;8103;51.340;12.326;2022-09-01T15:26:37;25.40;39.00
15997;DHT22;8103;51.340;12.326;2022-09-01T15:29:06;25.20;39.50
15997;DHT22;8103;51.340;12.326;2022-09-01T15:31:35;25.10;40.10
15997;DHT22;8103;51.340;12.326;2022-09-01T15:34:04;25.00;39.80
15997;DHT22;8103;51.340;12.326;2022-09-01T15:36:34;24.80;39.90
15997;DHT22;8103;51.340;12.326;2022-09-01T15:39:04;24.80;39.80
15997;DHT22;8103;51.340;12.326;2022-09-01T15:41:31;24.70;40.40
15997;DHT22;8103;51.340;12.326;2022-09-01T15:44:02;24.60;40.20
15997;DHT22;8103;51.340;12.326;2022-09-01T15:46:33;24.60;39.30
15997;DHT22;8103;51.340;12.326;2022-09-01T15:49:06;24.50;39.50
15997;DHT22;8103;51.340;12.326;2022-09-01T15:51:38;24.50;40.50
15997;DHT22;8103;51.340;12.326;2022-09-01T15:54:09;24.40;40.80
15997;DHT22;8103;51.340;12.326;2022-09-01T15:56:37;24.30;40.70
15997;DHT22;8103;51.340;12.326;2022-09-01T15:59:06;24.30;41.70
15997;DHT22;8103;51.340;12.326;2022-09-01T16:01:38;24.10;42.90
15997;DHT22;8103;51.340;12.326;2022-09-01T16:04:07;24.10;44.40
15997;DHT22;8103;51.340;12.326;2022-09-01T16:06:43;23.90;44.20
15997;DHT22;8103;51.340;12.326;2022-09-01T16:09:11;23.80;44.20
15997;DHT22;8103;51.340;12.326;2022-09-01T16:11:40;23.70;44.20
15997;DHT22;8103;51.340;12.326;2022-09-01T16:14:06;23.60;44.70
15997;DHT22;8103;51.340;12.326;2022-09-01T16:16:52;23.50;44.50
15997;DHT22;8103;51.340;12.326;2022-09-01T16:24:28;23.20;44.50
15997;DHT22;8103;51.340;12.326;2022-09-01T16:26:55;23.00;45.50
15997;DHT22;8103;51.340;12.326;2022-09-01T16:29:47;22.90;45.90
15997;DHT22;8103;51.340;12.326;2022-09-01T16:32:15;22.80;46.30
15997;DHT22;8103;51.340;12.326;2022-09-01T16:34:43;22.70;46.60
15997;DHT22;8103;51.340;12.326;2022-09-01T16:40:34;22.60;46.70
15997;DHT22;8103;51.340;12.326;2022-09-01T16:43:12;22.50;46.30
15997;DHT22;8103;51.340;12.326;2022-09-01T16:46:09;22.40;46.50
15997;DHT22;8103;51.340;12.326;2022-09-01T16:48:53;22.30;46.80
15997;DHT22;8103;51.340;12.326;2022-09-01T16:54:18;22.20;47.50
15997;DHT22;8103;51.340;12.326;2022-09-01T16:57:02;22.10;47.70
15997;DHT22;8103;51.340;12.326;2022-09-01T16:59:51;22.00;48.00
15997;DHT22;8103;51.340;12.326;2022-09-01T17:08:30;21.70;49.50
15997;DHT22;8103;51.340;12.326;2022-09-01T17:13:43;21.60;50.20
15997;DHT22;8103;51.340;12.326;2022-09-01T17:16:28;21.50;50.30
15997;DHT22;8103;51.340;12.326;2022-09-01T17:18:58;21.40;50.60
15997;DHT22;8103;51.340;12.326;2022-09-01T17:21:37;21.40;51.00
15997;DHT22;8103;51.340;12.326;2022-09-01T17:26:52;21.20;51.80